sensor_id;sensor_type;location;lat;lon;timestamp;temperature;humidity
7704;DHT22;3894;49.700;10.770;2022-07-18T00:01:28;16.60;90.00
7704;DHT22;3894;49.700;10.770;2022-07-18T00:03:54;16.50;89.50
7704;DHT22;3894;49.700;10.770;2022-07-18T00:06:20;16.50;90.20
7704;DHT22;3894;49.700;10.770;2022-07-18T00:08:45;16.70;90.00
7704;DHT22;3894;49.700;10.770;2022-07-18T00:11:14;16.50;90.00
7704;DHT22;3894;49.700;10.770;2022-07-18T00:13:40;16.60;90.20
7704;DHT22;3894;49.700;10.770;2022-07-18T00:16:06;16.70;90.10
7704;DHT22;3894;49.700;10.770;2022-07-18T00:18:34;16.70;90.00
7704;DHT22;3894;49.700;10.770;2022-07-18T00:21:00;16.70;90.30
7704;DHT22;3894;49.700;10.770;2022-07-18T00:23:25;16.70;90.10
7704;DHT22;3894;49.700;10.770;2022-07-18T00:25:51;16.70;90.20
7704;DHT22;3894;49.700;10.770;2022-07-18T00:28:17;16.60;90.20
7704;DHT22;3894;49.700;10.770;2022-07-18T00:30:43;16.60;90.30
7704;DHT22;3894;49.700;10.770;2022-07-18T00:33:09;16.60;90.60
7704;DHT22;3894;49.700;10.770;2022-07-18T00:35:35;16.50;91.30
7704;DHT22;3894;49.700;10.770;2022-07-18T00:38:00;16.20;92.20
7704;DHT22;3894;49.700;10.770;2022-07-18T00:40:30;16.00;93.10
7704;DHT22;3894;49.700;10.770;2022-07-18T00:42:56;15.80;93.40
7704;DHT22;3894;49.700;10.770;2022-07-18T00:45:22;15.90;93.60
7704;DHT22;3894;49.700;10.770;2022-07-18T00:47:48;15.70;94.30
7704;DHT22;3894;49.700;10.770;2022-07-18T00:50:23;15.50;94.70
7704;DHT22;3894;49.700;10.770;2022-07-18T00:52:49;15.40;94.90
7704;DHT22;3894;49.700;10.770;2022-07-18T00:55:15;15.30;95.00
7704;DHT22;3894;49.700;10.770;2022-07-18T00:57:42;15.40;95.10
7704;DHT22;3894;49.700;10.770;2022-07-18T01:00:11;15.60;94.90
7704;DHT22;3894;49.700;10.770;2022-07-18T01:02:56;15.80;94.60
7704;DHT22;3894;49.700;10.770;2022-07-18T01:05:22;15.70;94.60
7704;DHT22;3894;49.700;10.770;2022-07-18T01:07:47;15.70;94.60
7704;DHT22;3894;49.700;10.770;2022-07-18T01:10:13;15.80;94.60
7704;DHT22;3894;49.700;10.770;2022-07-18T01:12:39;15.80;94.10
7704;DHT22;3894;49.700;10.770;2022-07-18T01:15:06;15.80;94.00
7704;DHT22;3894;49.700;10.770;2022-07-18T01:17:32;15.70;94.40
7704;DHT22;3894;49.700;10.770;2022-07-18T01:19:58;15.60;94.80
7704;DHT22;3894;49.700;10.770;2022-07-18T01:22:27;15.50;95.10
7704;DHT22;3894;49.700;10.770;2022-07-18T01:24:53;15.40;95.20
7704;DHT22;3894;49.700;10.770;2022-07-18T01:27:20;15.40;95.20
7704;DHT22;3894;49.700;10.770;2022-07-18T01:29:49;15.50;95.30
7704;DHT22;3894;49.700;10.770;2022-07-18T01:32:15;15.30;95.70
7704;DHT22;3894;49.700;10.770;2022-07-18T01:34:41;15.10;96.10
7704;DHT22;3894;49.700;10.770;2022-07-18T01:37:07;15.00;96.30
7704;DHT22;3894;49.700;10.770;2022-07-18T01:39:34;15.10;96.30
7704;DHT22;3894;49.700;10.770;2022-07-18T01:42:02;15.20;96.10
7704;DHT22;3894;49.700;10.770;2022-07-18T01:44:29;15.20;96.10
7704;DHT22;3894;49.700;10.770;2022-07-18T01:46:55;15.10;96.40
7704;DHT22;3894;49.700;10.770;2022-07-18T01:49:22;15.00;96.50
7704;DHT22;3894;49.700;10.770;2022-07-18T01:51:53;14.80;96.90
7704;DHT22;3894;49.700;10.770;2022-07-18T01:54:20;14.60;97.60
7704;DHT22;3894;49.700;10.770;2022-07-18T01:56:46;14.60;97.70
7704;DHT22;3894;49.700;10.770;2022-07-18T01:59:18;14.50;97.90
7704;DHT22;3894;49.700;10.770;2022-07-18T02:01:47;14.50;98.10
7704;DHT22;3894;49.700;10.770;2022-07-18T02:04:13;14.50;98.40
7704;DHT22;3894;49.700;10.770;2022-07-18T02:06:39;14.40;98.20
7704;DHT22;3894;49.700;10.770;2022-07-18T02:09:14;14.50;98.40
7704;DHT22;3894;49.700;10.770;2022-07-18T02:11:42;14.40;98.40
7704;DHT22;3894;49.700;10.770;2022-07-18T02:14:08;14.40;98.50
7704;DHT22;3894;49.700;10.770;2022-07-18T02:16:34;14.40;98.80
7704;DHT22;3894;49.700;10.770;2022-07-18T02:18:59;14.30;99.20
7704;DHT22;3894;49.700;10.770;2022-07-18T02:21:25;14.20;99.30
7704;DHT22;3894;49.700;10.770;2022-07-18T02:23:51;14.20;99.40
7704;DHT22;3894;49.700;10.770;2022-07-18T02:26:17;14.30;99.30
7704;DHT22;3894;49.700;10.770;2022-07-18T02:28:43;14.40;99.30
7704;DHT22;3894;49.700;10.770;2022-07-18T02:31:09;14.40;99.30
7704;DHT22;3894;49.700;10.770;2022-07-18T02:33:40;14.40;99.40
7704;DHT22;3894;49.700;10.770;2022-07-18T02:36:06;14.40;99.40
7704;DHT22;3894;49.700;10.770;2022-07-18T02:38:31;14.40;99.40
7704;DHT22;3894;49.700;10.770;2022-07-18T02:40:57;14.40;99.10
7704;DHT22;3894;49.700;10.770;2022-07-18T02:43:22;14.40;99.30
7704;DHT22;3894;49.700;10.770;2022-07-18T02:45:48;14.30;99.70
7704;DHT22;3894;49.700;10.770;2022-07-18T02:48:13;14.10;99.90
7704;DHT22;3894;49.700;10.770;2022-07-18T02:50:39;14.00;99.90
7704;DHT22;3894;49.700;10.770;2022-07-18T02:53:05;13.80;99.90
7704;DHT22;3894;49.700;10.770;2022-07-18T02:55:30;13.80;99.90
7704;DHT22;3894;49.700;10.770;2022-07-18T02:57:56;13.70;99.90
7704;DHT22;3894;49.700;10.770;2022-07-18T03:00:22;13.70;99.90
7704;DHT22;3894;49.700;10.770;2022-07-18T03:02:47;13.70;99.90
7704;DHT22;3894;49.700;10.770;2022-07-18T03:05:13;13.60;99.90
7704;DHT22;3894;49.700;10.770;2022-07-18T03:07:38;13.60;99.90
7704;DHT22;3894;49.700;10.770;2022-07-18T03:10:05;13.60;99.90
7704;DHT22;3894;49.700;10.770;2022-07-18T03:12:31;13.60;99.90
7704;DHT22;3894;49.700;10.770;2022-07-18T03:14:57;13.50;99.90
7704;DHT22;3894;49.700;10.770;2022-07-18T03:17:23;13.50;99.90
7704;DHT22;3894;49.700;10.770;2022-07-18T03:19:48;13.50;99.90
7704;DHT22;3894;49.700;10.770;2022-07-18T03:22:14;13.50;99.90
7704;DHT22;3894;49.700;10.770;2022-07-18T03:24:40;13.50;99.90
7704;DHT22;3894;49.700;10.770;2022-07-18T03:27:05;13.40;99.90
7704;DHT22;3894;49.700;10.770;2022-07-18T03:29:31;13.40;99.90
7704;DHT22;3894;49.700;10.770;2022-07-18T03:31:57;13.40;99.90
7704;DHT22;3894;49.700;10.770;2022-07-18T03:34:22;13.30;99.90
7704;DHT22;3894;49.700;10.770;2022-07-18T03:36:48;13.40;99.90
7704;DHT22;3894;49.700;10.770;2022-07-18T03:39:13;13.50;99.90
7704;DHT22;3894;49.700;10.770;2022-07-18T03:41:42;13.50;99.90
7704;DHT22;3894;49.700;10.770;2022-07-18T03:44:08;13.50;99.90
7704;DHT22;3894;49.700;10.770;2022-07-18T03:46:34;13.70;99.90
7704;DHT22;3894;49.700;10.770;2022-07-18T03:49:03;13.80;99.90
7704;DHT22;3894;49.700;10.770;2022-07-18T03:51:29;13.80;99.90
7704;DHT22;3894;49.700;10.770;2022-07-18T03:53:54;14.00;99.90
7704;DHT22;3894;49.700;10.770;2022-07-18T03:56:20;13.90;99.90
7704;DHT22;3894;49.700;10.770;2022-07-18T03:58:46;13.90;99.90
7704;DHT22;3894;49.700;10.770;2022-07-18T04:01:12;13.80;99.90
7704;DHT22;3894;49.700;10.770;2022-07-18T04:03:37;13.70;99.90
7704;DHT22;3894;49.700;10.770;2022-07-18T04:06:09;13.70;99.90
7704;DHT22;3894;49.700;10.770;2022-07-18T04:08:35;13.80;99.90
7704;DHT22;3894;49.700;10.770;2022-07-18T04:11:01;13.80;99.90
7704;DHT22;3894;49.700;10.770;2022-07-18T04:13:26;13.90;99.90
7704;DHT22;3894;49.700;10.770;2022-07-18T04:15:52;14.00;99.90
7704;DHT22;3894;49.700;10.770;2022-07-18T04:18:24;14.10;99.90
7704;DHT22;3894;49.700;10.770;2022-07-18T04:20:49;14.00;99.90
7704;DHT22;3894;49.700;10.770;2022-07-18T04:23:16;13.90;99.90
7704;DHT22;3894;49.700;10.770;2022-07-18T04:25:43;13.80;99.90
7704;DHT22;3894;49.700;10.770;2022-07-18T04:28:12;13.80;99.90
7704;DHT22;3894;49.700;10.770;2022-07-18T04:30:39;13.80;99.90
7704;DHT22;3894;49.700;10.770;2022-07-18T04:33:07;13.90;99.90
7704;DHT22;3894;49.700;10.770;2022-07-18T04:35:33;14.20;99.90
7704;DHT22;3894;49.700;10.770;2022-07-18T04:38:02;14.40;99.90
7704;DHT22;3894;49.700;10.770;2022-07-18T04:40:27;14.40;99.90
7704;DHT22;3894;49.700;10.770;2022-07-18T04:42:53;14.60;99.90
7704;DHT22;3894;49.700;10.770;2022-07-18T04:45:19;14.60;99.90
7704;DHT22;3894;49.700;10.770;2022-07-18T04:47:51;14.60;99.90
7704;DHT22;3894;49.700;10.770;2022-07-18T04:50:17;14.60;99.90
7704;DHT22;3894;49.700;10.770;2022-07-18T04:52:44;14.70;99.90
7704;DHT22;3894;49.700;10.770;2022-07-18T04:55:14;14.70;99.90
7704;DHT22;3894;49.700;10.770;2022-07-18T04:57:40;14.80;99.90
7704;DHT22;3894;49.700;10.770;2022-07-18T05:00:14;14.90;99.90
7704;DHT22;3894;49.700;10.770;2022-07-18T05:02:41;15.00;99.90
7704;DHT22;3894;49.700;10.770;2022-07-18T05:05:07;15.00;99.90
7704;DHT22;3894;49.700;10.770;2022-07-18T05:07:35;15.10;99.90
7704;DHT22;3894;49.700;10.770;2022-07-18T05:10:00;15.10;99.90
7704;DHT22;3894;49.700;10.770;2022-07-18T05:12:29;15.30;99.90
7704;DHT22;3894;49.700;10.770;2022-07-18T05:14:55;15.50;99.90
7704;DHT22;3894;49.700;10.770;2022-07-18T05:17:20;15.60;99.90
7704;DHT22;3894;49.700;10.770;2022-07-18T05:19:46;15.90;99.90
7704;DHT22;3894;49.700;10.770;2022-07-18T05:22:15;16.30;99.90
7704;DHT22;3894;49.700;10.770;2022-07-18T05:24:43;16.70;99.90
7704;DHT22;3894;49.700;10.770;2022-07-18T05:27:08;17.00;99.90
7704;DHT22;3894;49.700;10.770;2022-07-18T05:29:34;17.20;99.80
7704;DHT22;3894;49.700;10.770;2022-07-18T05:32:00;17.30;99.70
7704;DHT22;3894;49.700;10.770;2022-07-18T05:34:27;17.30;99.50
7704;DHT22;3894;49.700;10.770;2022-07-18T05:36:53;17.30;99.10
7704;DHT22;3894;49.700;10.770;2022-07-18T05:39:20;17.30;99.40
7704;DHT22;3894;49.700;10.770;2022-07-18T05:41:45;17.50;99.30
7704;DHT22;3894;49.700;10.770;2022-07-18T05:44:11;17.70;98.90
7704;DHT22;3894;49.700;10.770;2022-07-18T05:46:37;17.90;98.90
7704;DHT22;3894;49.700;10.770;2022-07-18T05:49:04;18.10;98.90
7704;DHT22;3894;49.700;10.770;2022-07-18T05:51:29;18.30;98.30
7704;DHT22;3894;49.700;10.770;2022-07-18T05:53:55;18.50;98.30
7704;DHT22;3894;49.700;10.770;2022-07-18T05:56:20;18.70;98.40
7704;DHT22;3894;49.700;10.770;2022-07-18T05:58:46;18.80;98.30
7704;DHT22;3894;49.700;10.770;2022-07-18T06:01:12;19.00;97.90
7704;DHT22;3894;49.700;10.770;2022-07-18T06:03:42;19.10;97.60
7704;DHT22;3894;49.700;10.770;2022-07-18T06:06:11;19.20;97.50
7704;DHT22;3894;49.700;10.770;2022-07-18T06:08:37;19.30;97.40
7704;DHT22;3894;49.700;10.770;2022-07-18T06:11:02;19.40;97.50
7704;DHT22;3894;49.700;10.770;2022-07-18T06:13:30;19.60;97.30
7704;DHT22;3894;49.700;10.770;2022-07-18T06:15:55;19.70;96.90
7704;DHT22;3894;49.700;10.770;2022-07-18T06:18:21;19.80;96.40
7704;DHT22;3894;49.700;10.770;2022-07-18T06:20:46;20.10;95.40
7704;DHT22;3894;49.700;10.770;2022-07-18T06:23:12;20.20;93.80
7704;DHT22;3894;49.700;10.770;2022-07-18T06:25:38;20.40;93.00
7704;DHT22;3894;49.700;10.770;2022-07-18T06:28:03;20.70;92.30
7704;DHT22;3894;49.700;10.770;2022-07-18T06:30:29;20.90;90.80
7704;DHT22;3894;49.700;10.770;2022-07-18T06:33:03;21.00;90.60
7704;DHT22;3894;49.700;10.770;2022-07-18T06:35:31;21.30;87.40
7704;DHT22;3894;49.700;10.770;2022-07-18T06:37:57;21.10;84.40
7704;DHT22;3894;49.700;10.770;2022-07-18T06:40:23;21.00;82.70
7704;DHT22;3894;49.700;10.770;2022-07-18T06:42:51;21.20;84.40
7704;DHT22;3894;49.700;10.770;2022-07-18T06:45:17;21.50;83.00
7704;DHT22;3894;49.700;10.770;2022-07-18T06:47:42;21.80;82.20
7704;DHT22;3894;49.700;10.770;2022-07-18T06:50:10;22.00;81.10
7704;DHT22;3894;49.700;10.770;2022-07-18T06:52:37;22.20;80.10
7704;DHT22;3894;49.700;10.770;2022-07-18T06:55:04;22.10;79.10
7704;DHT22;3894;49.700;10.770;2022-07-18T06:57:30;22.10;80.50
7704;DHT22;3894;49.700;10.770;2022-07-18T06:59:56;22.10;80.20
7704;DHT22;3894;49.700;10.770;2022-07-18T07:02:21;22.20;79.90
7704;DHT22;3894;49.700;10.770;2022-07-18T07:04:47;22.40;80.20
7704;DHT22;3894;49.700;10.770;2022-07-18T07:07:16;22.40;80.30
7704;DHT22;3894;49.700;10.770;2022-07-18T07:09:41;22.50;80.20
7704;DHT22;3894;49.700;10.770;2022-07-18T07:12:07;22.90;80.40
7704;DHT22;3894;49.700;10.770;2022-07-18T07:14:33;23.10;79.80
7704;DHT22;3894;49.700;10.770;2022-07-18T07:16:58;23.20;79.50
7704;DHT22;3894;49.700;10.770;2022-07-18T07:19:24;23.00;77.70
7704;DHT22;3894;49.700;10.770;2022-07-18T07:21:50;23.20;79.90
7704;DHT22;3894;49.700;10.770;2022-07-18T07:24:16;23.40;78.30
7704;DHT22;3894;49.700;10.770;2022-07-18T07:26:42;23.10;76.00
7704;DHT22;3894;49.700;10.770;2022-07-18T07:29:07;23.10;77.00
7704;DHT22;3894;49.700;10.770;2022-07-18T07:31:36;23.40;77.60
7704;DHT22;3894;49.700;10.770;2022-07-18T07:34:02;23.70;78.10
7704;DHT22;3894;49.700;10.770;2022-07-18T07:36:27;23.70;75.30
7704;DHT22;3894;49.700;10.770;2022-07-18T07:38:56;23.40;74.80
7704;DHT22;3894;49.700;10.770;2022-07-18T07:41:22;23.10;76.40
7704;DHT22;3894;49.700;10.770;2022-07-18T07:43:48;23.30;76.40
7704;DHT22;3894;49.700;10.770;2022-07-18T07:46:13;23.30;75.30
7704;DHT22;3894;49.700;10.770;2022-07-18T07:48:39;23.50;76.10
7704;DHT22;3894;49.700;10.770;2022-07-18T07:51:08;24.10;76.50
7704;DHT22;3894;49.700;10.770;2022-07-18T07:53:33;24.30;75.30
7704;DHT22;3894;49.700;10.770;2022-07-18T07:55:59;24.60;75.70
7704;DHT22;3894;49.700;10.770;2022-07-18T07:58:25;24.80;73.60
7704;DHT22;3894;49.700;10.770;2022-07-18T08:00:50;24.90;72.40
7704;DHT22;3894;49.700;10.770;2022-07-18T08:03:16;24.80;72.90
7704;DHT22;3894;49.700;10.770;2022-07-18T08:05:52;24.90;71.60
7704;DHT22;3894;49.700;10.770;2022-07-18T08:08:18;25.00;73.50
7704;DHT22;3894;49.700;10.770;2022-07-18T08:10:44;25.00;73.20
7704;DHT22;3894;49.700;10.770;2022-07-18T08:13:12;25.00;72.80
7704;DHT22;3894;49.700;10.770;2022-07-18T08:15:38;25.00;72.40
7704;DHT22;3894;49.700;10.770;2022-07-18T08:18:04;25.00;73.50
7704;DHT22;3894;49.700;10.770;2022-07-18T08:20:30;25.30;73.00
7704;DHT22;3894;49.700;10.770;2022-07-18T08:23:01;25.40;72.40
7704;DHT22;3894;49.700;10.770;2022-07-18T08:25:29;25.50;72.00
7704;DHT22;3894;49.700;10.770;2022-07-18T08:27:56;25.90;71.00
7704;DHT22;3894;49.700;10.770;2022-07-18T08:30:23;26.20;69.90
7704;DHT22;3894;49.700;10.770;2022-07-18T08:32:48;26.30;67.40
7704;DHT22;3894;49.700;10.770;2022-07-18T08:35:14;26.40;68.40
7704;DHT22;3894;49.700;10.770;2022-07-18T08:37:40;26.40;65.60
7704;DHT22;3894;49.700;10.770;2022-07-18T08:40:07;26.30;64.70
7704;DHT22;3894;49.700;10.770;2022-07-18T08:42:34;26.50;65.80
7704;DHT22;3894;49.700;10.770;2022-07-18T08:45:06;26.50;65.00
7704;DHT22;3894;49.700;10.770;2022-07-18T08:47:32;26.50;65.40
7704;DHT22;3894;49.700;10.770;2022-07-18T08:49:59;26.50;66.00
7704;DHT22;3894;49.700;10.770;2022-07-18T08:52:26;26.60;66.30
7704;DHT22;3894;49.700;10.770;2022-07-18T08:54:51;26.60;65.30
7704;DHT22;3894;49.700;10.770;2022-07-18T08:57:23;26.80;65.90
7704;DHT22;3894;49.700;10.770;2022-07-18T08:59:49;26.90;65.20
7704;DHT22;3894;49.700;10.770;2022-07-18T09:02:15;27.10;65.10
7704;DHT22;3894;49.700;10.770;2022-07-18T09:04:50;27.00;63.90
7704;DHT22;3894;49.700;10.770;2022-07-18T09:07:27;27.10;64.70
7704;DHT22;3894;49.700;10.770;2022-07-18T09:09:59;27.40;64.00
7704;DHT22;3894;49.700;10.770;2022-07-18T09:12:26;27.50;63.60
7704;DHT22;3894;49.700;10.770;2022-07-18T09:14:55;27.60;64.30
7704;DHT22;3894;49.700;10.770;2022-07-18T09:17:26;27.90;63.40
7704;DHT22;3894;49.700;10.770;2022-07-18T09:22:25;28.10;63.10
7704;DHT22;3894;49.700;10.770;2022-07-18T09:25:02;28.20;61.90
7704;DHT22;3894;49.700;10.770;2022-07-18T09:27:36;28.20;61.80
7704;DHT22;3894;49.700;10.770;2022-07-18T09:32:35;28.20;61.30
7704;DHT22;3894;49.700;10.770;2022-07-18T09:35:09;28.40;61.20
7704;DHT22;3894;49.700;10.770;2022-07-18T09:37:35;28.60;61.30
7704;DHT22;3894;49.700;10.770;2022-07-18T09:40:28;28.90;60.40
7704;DHT22;3894;49.700;10.770;2022-07-18T09:43:00;29.00;59.10
7704;DHT22;3894;49.700;10.770;2022-07-18T09:45:37;28.80;58.00
7704;DHT22;3894;49.700;10.770;2022-07-18T09:48:08;28.90;57.30
7704;DHT22;3894;49.700;10.770;2022-07-18T09:50:39;29.20;57.70
7704;DHT22;3894;49.700;10.770;2022-07-18T09:53:10;29.20;55.10
7704;DHT22;3894;49.700;10.770;2022-07-18T09:55:42;28.90;53.00
7704;DHT22;3894;49.700;10.770;2022-07-18T09:58:08;28.40;53.00
7704;DHT22;3894;49.700;10.770;2022-07-18T10:00:36;28.70;54.60
7704;DHT22;3894;49.700;10.770;2022-07-18T10:03:04;28.90;53.80
7704;DHT22;3894;49.700;10.770;2022-07-18T10:05:32;29.30;53.60
7704;DHT22;3894;49.700;10.770;2022-07-18T10:08:00;29.30;50.50
7704;DHT22;3894;49.700;10.770;2022-07-18T10:10:32;29.20;50.20
7704;DHT22;3894;49.700;10.770;2022-07-18T10:13:00;29.40;51.80
7704;DHT22;3894;49.700;10.770;2022-07-18T10:15:29;29.40;49.20
7704;DHT22;3894;49.700;10.770;2022-07-18T10:17:56;28.60;49.50
7704;DHT22;3894;49.700;10.770;2022-07-18T10:20:33;28.90;52.20
7704;DHT22;3894;49.700;10.770;2022-07-18T10:23:05;28.90;49.50
7704;DHT22;3894;49.700;10.770;2022-07-18T10:25:32;28.90;49.10
7704;DHT22;3894;49.700;10.770;2022-07-18T10:28:05;28.80;48.70
7704;DHT22;3894;49.700;10.770;2022-07-18T10:30:47;29.00;49.50
7704;DHT22;3894;49.700;10.770;2022-07-18T10:33:41;29.40;50.20
7704;DHT22;3894;49.700;10.770;2022-07-18T10:36:13;29.90;51.60
7704;DHT22;3894;49.700;10.770;2022-07-18T10:39:06;30.50;51.90
7704;DHT22;3894;49.700;10.770;2022-07-18T10:41:36;30.50;51.60
7704;DHT22;3894;49.700;10.770;2022-07-18T10:57:35;31.10;50.50
7704;DHT22;3894;49.700;10.770;2022-07-18T11:00:14;31.30;50.80
7704;DHT22;3894;49.700;10.770;2022-07-18T11:02:43;31.30;50.70
7704;DHT22;3894;49.700;10.770;2022-07-18T11:16:11;31.70;49.80
7704;DHT22;3894;49.700;10.770;2022-07-18T11:21:29;31.70;50.20
7704;DHT22;3894;49.700;10.770;2022-07-18T11:24:09;32.20;51.40
7704;DHT22;3894;49.700;10.770;2022-07-18T11:26:38;32.10;49.20
7704;DHT22;3894;49.700;10.770;2022-07-18T11:29:08;32.40;48.60
7704;DHT22;3894;49.700;10.770;2022-07-18T11:32:02;32.00;48.30
7704;DHT22;3894;49.700;10.770;2022-07-18T11:34:30;32.10;49.80
7704;DHT22;3894;49.700;10.770;2022-07-18T11:36:55;32.20;48.80
7704;DHT22;3894;49.700;10.770;2022-07-18T11:39:32;32.50;49.70
7704;DHT22;3894;49.700;10.770;2022-07-18T11:41:59;32.70;49.60
7704;DHT22;3894;49.700;10.770;2022-07-18T11:44:26;32.70;49.00
7704;DHT22;3894;49.700;10.770;2022-07-18T11:47:09;32.80;48.60
7704;DHT22;3894;49.700;10.770;2022-07-18T11:49:36;32.80;48.20
7704;DHT22;3894;49.700;10.770;2022-07-18T11:52:04;32.70;47.30
7704;DHT22;3894;49.700;10.770;2022-07-18T11:54:30;32.10;45.70
7704;DHT22;3894;49.700;10.770;2022-07-18T11:56:58;31.30;46.10
7704;DHT22;3894;49.700;10.770;2022-07-18T11:59:35;31.10;47.50
7704;DHT22;3894;49.700;10.770;2022-07-18T12:02:02;31.60;46.80
7704;DHT22;3894;49.700;10.770;2022-07-18T12:04:27;31.30;46.50
7704;DHT22;3894;49.700;10.770;2022-07-18T12:07:33;31.80;49.50
7704;DHT22;3894;49.700;10.770;2022-07-18T12:10:15;32.00;45.50
7704;DHT22;3894;49.700;10.770;2022-07-18T12:12:41;31.80;46.10
7704;DHT22;3894;49.700;10.770;2022-07-18T12:15:07;31.60;46.10
7704;DHT22;3894;49.700;10.770;2022-07-18T12:17:43;32.00;48.00
7704;DHT22;3894;49.700;10.770;2022-07-18T12:20:18;32.10;46.10
7704;DHT22;3894;49.700;10.770;2022-07-18T12:23:06;32.00;47.00
7704;DHT22;3894;49.700;10.770;2022-07-18T12:25:55;32.00;45.50
7704;DHT22;3894;49.700;10.770;2022-07-18T12:28:21;32.20;47.20
7704;DHT22;3894;49.700;10.770;2022-07-18T12:30:47;32.50;46.90
7704;DHT22;3894;49.700;10.770;2022-07-18T12:33:13;32.50;46.00
7704;DHT22;3894;49.700;10.770;2022-07-18T12:35:40;32.30;45.10
7704;DHT22;3894;49.700;10.770;2022-07-18T12:38:15;32.50;46.50
7704;DHT22;3894;49.700;10.770;2022-07-18T12:43:09;32.50;46.50
7704;DHT22;3894;49.700;10.770;2022-07-18T12:45:36;32.40;44.30
7704;DHT22;3894;49.700;10.770;2022-07-18T12:48:03;32.10;45.70
7704;DHT22;3894;49.700;10.770;2022-07-18T12:50:29;32.50;46.00
7704;DHT22;3894;49.700;10.770;2022-07-18T12:52:54;31.90;44.70
7704;DHT22;3894;49.700;10.770;2022-07-18T12:55:20;31.70;45.30
7704;DHT22;3894;49.700;10.770;2022-07-18T12:57:45;32.30;47.60
7704;DHT22;3894;49.700;10.770;2022-07-18T13:00:11;32.80;47.20
7704;DHT22;3894;49.700;10.770;2022-07-18T13:02:37;33.00;45.70
7704;DHT22;3894;49.700;10.770;2022-07-18T13:05:03;33.30;46.40
7704;DHT22;3894;49.700;10.770;2022-07-18T13:07:28;33.30;45.10
7704;DHT22;3894;49.700;10.770;2022-07-18T13:09:54;33.00;42.70
7704;DHT22;3894;49.700;10.770;2022-07-18T13:12:20;32.90;45.60
7704;DHT22;3894;49.700;10.770;2022-07-18T13:14:46;33.10;44.90
7704;DHT22;3894;49.700;10.770;2022-07-18T13:17:11;33.50;44.90
7704;DHT22;3894;49.700;10.770;2022-07-18T13:19:37;33.60;45.50
7704;DHT22;3894;49.700;10.770;2022-07-18T13:22:02;33.60;44.40
7704;DHT22;3894;49.700;10.770;2022-07-18T13:24:28;33.80;45.70
7704;DHT22;3894;49.700;10.770;2022-07-18T13:26:54;33.90;45.80
7704;DHT22;3894;49.700;10.770;2022-07-18T13:29:20;34.00;45.10
7704;DHT22;3894;49.700;10.770;2022-07-18T13:31:46;34.00;45.10
7704;DHT22;3894;49.700;10.770;2022-07-18T13:34:13;34.00;44.00
7704;DHT22;3894;49.700;10.770;2022-07-18T13:36:38;34.00;44.90
7704;DHT22;3894;49.700;10.770;2022-07-18T13:39:04;34.10;44.30
7704;DHT22;3894;49.700;10.770;2022-07-18T13:41:29;33.80;43.80
7704;DHT22;3894;49.700;10.770;2022-07-18T13:43:55;33.80;43.60
7704;DHT22;3894;49.700;10.770;2022-07-18T13:46:21;33.80;44.90
7704;DHT22;3894;49.700;10.770;2022-07-18T13:48:46;33.70;44.50
7704;DHT22;3894;49.700;10.770;2022-07-18T13:51:13;33.60;44.70
7704;DHT22;3894;49.700;10.770;2022-07-18T13:53:38;33.40;44.50
7704;DHT22;3894;49.700;10.770;2022-07-18T13:56:04;33.20;44.30
7704;DHT22;3894;49.700;10.770;2022-07-18T13:58:29;33.20;44.90
7704;DHT22;3894;49.700;10.770;2022-07-18T14:00:55;33.10;43.90
7704;DHT22;3894;49.700;10.770;2022-07-18T14:03:21;33.10;44.00
7704;DHT22;3894;49.700;10.770;2022-07-18T14:05:46;33.20;45.00
7704;DHT22;3894;49.700;10.770;2022-07-18T14:08:12;33.10;44.60
7704;DHT22;3894;49.700;10.770;2022-07-18T14:10:37;33.20;45.20
7704;DHT22;3894;49.700;10.770;2022-07-18T14:13:03;33.10;44.60
7704;DHT22;3894;49.700;10.770;2022-07-18T14:15:29;33.10;45.40
7704;DHT22;3894;49.700;10.770;2022-07-18T14:17:55;33.20;44.70
7704;DHT22;3894;49.700;10.770;2022-07-18T14:20:21;33.20;44.10
7704;DHT22;3894;49.700;10.770;2022-07-18T14:22:47;33.10;42.70
7704;DHT22;3894;49.700;10.770;2022-07-18T14:25:15;32.60;42.50
7704;DHT22;3894;49.700;10.770;2022-07-18T14:27:41;32.70;44.20
7704;DHT22;3894;49.700;10.770;2022-07-18T14:30:10;32.80;45.10
7704;DHT22;3894;49.700;10.770;2022-07-18T14:32:36;32.90;44.40
7704;DHT22;3894;49.700;10.770;2022-07-18T14:35:02;32.90;43.40
7704;DHT22;3894;49.700;10.770;2022-07-18T14:37:28;32.90;44.70
7704;DHT22;3894;49.700;10.770;2022-07-18T14:39:53;32.90;43.90
7704;DHT22;3894;49.700;10.770;2022-07-18T14:42:19;32.70;44.00
7704;DHT22;3894;49.700;10.770;2022-07-18T14:44:44;32.70;44.20
7704;DHT22;3894;49.700;10.770;2022-07-18T14:47:10;32.70;44.40
7704;DHT22;3894;49.700;10.770;2022-07-18T14:49:35;32.70;43.70
7704;DHT22;3894;49.700;10.770;2022-07-18T14:52:01;32.80;44.80
7704;DHT22;3894;49.700;10.770;2022-07-18T14:54:27;32.90;44.40
7704;DHT22;3894;49.700;10.770;2022-07-18T14:56:53;33.00;43.90
7704;DHT22;3894;49.700;10.770;2022-07-18T14:59:20;33.00;44.10
7704;DHT22;3894;49.700;10.770;2022-07-18T15:01:46;33.00;43.80
7704;DHT22;3894;49.700;10.770;2022-07-18T15:04:12;32.80;43.60
7704;DHT22;3894;49.700;10.770;2022-07-18T15:06:37;32.90;45.10
7704;DHT22;3894;49.700;10.770;2022-07-18T15:09:03;32.90;44.20
7704;DHT22;3894;49.700;10.770;2022-07-18T15:11:29;32.70;44.10
7704;DHT22;3894;49.700;10.770;2022-07-18T15:13:55;32.60;44.10
7704;DHT22;3894;49.700;10.770;2022-07-18T15:16:21;32.50;44.10
7704;DHT22;3894;49.700;10.770;2022-07-18T15:18:47;32.50;44.10
7704;DHT22;3894;49.700;10.770;2022-07-18T15:21:12;32.90;43.40
7704;DHT22;3894;49.700;10.770;2022-07-18T15:23:38;33.00;43.60
7704;DHT22;3894;49.700;10.770;2022-07-18T15:26:04;32.90;43.80
7704;DHT22;3894;49.700;10.770;2022-07-18T15:28:29;32.80;42.70
7704;DHT22;3894;49.700;10.770;2022-07-18T15:30:55;32.70;43.10
7704;DHT22;3894;49.700;10.770;2022-07-18T15:33:20;32.70;43.70
7704;DHT22;3894;49.700;10.770;2022-07-18T15:35:46;32.70;43.40
7704;DHT22;3894;49.700;10.770;2022-07-18T15:38:12;32.70;43.00
7704;DHT22;3894;49.700;10.770;2022-07-18T15:40:38;32.80;44.20
7704;DHT22;3894;49.700;10.770;2022-07-18T15:43:04;32.80;44.00
7704;DHT22;3894;49.700;10.770;2022-07-18T15:45:29;32.80;43.50
7704;DHT22;3894;49.700;10.770;2022-07-18T15:47:56;32.60;43.00
7704;DHT22;3894;49.700;10.770;2022-07-18T15:50:21;32.80;43.90
7704;DHT22;3894;49.700;10.770;2022-07-18T15:52:47;33.00;43.60
7704;DHT22;3894;49.700;10.770;2022-07-18T15:55:13;33.10;44.00
7704;DHT22;3894;49.700;10.770;2022-07-18T15:57:38;33.00;43.80
7704;DHT22;3894;49.700;10.770;2022-07-18T16:00:05;33.00;43.80
7704;DHT22;3894;49.700;10.770;2022-07-18T16:02:32;32.90;43.00
7704;DHT22;3894;49.700;10.770;2022-07-18T16:04:57;32.90;43.30
7704;DHT22;3894;49.700;10.770;2022-07-18T16:07:23;33.20;42.70
7704;DHT22;3894;49.700;10.770;2022-07-18T16:09:49;33.30;42.90
7704;DHT22;3894;49.700;10.770;2022-07-18T16:12:14;33.20;43.10
7704;DHT22;3894;49.700;10.770;2022-07-18T16:14:40;33.00;43.00
7704;DHT22;3894;49.700;10.770;2022-07-18T16:17:06;33.00;43.00
7704;DHT22;3894;49.700;10.770;2022-07-18T16:19:31;33.00;44.00
7704;DHT22;3894;49.700;10.770;2022-07-18T16:21:57;33.00;42.70